sensor_id;sensor_type;location;lat;lon;timestamp;P1;durP1;ratioP1;P2;durP2;ratioP2
10582;SDS011;33679;51.218;6.786;2023-06-26T00:01:52;7.13;;;5.30;;
10582;SDS011;33679;51.218;6.786;2023-06-26T00:04:28;7.33;;;5.43;;
10582;SDS011;33679;51.218;6.786;2023-06-26T00:07:03;5.60;;;4.90;;
10582;SDS011;33679;51.218;6.786;2023-06-26T00:09:36;7.33;;;5.20;;
10582;SDS011;33679;51.218;6.786;2023-06-26T00:12:09;9.07;;;5.13;;
10582;SDS011;33679;51.218;6.786;2023-06-26T00:14:41;6.47;;;5.00;;
10582;SDS011;33679;51.218;6.786;2023-06-26T00:17:16;7.43;;;5.30;;
10582;SDS011;33679;51.218;6.786;2023-06-26T00:19:51;8.00;;;5.77;;
10582;SDS011;33679;51.218;6.786;2023-06-26T00:22:24;8.17;;;5.17;;
10582;SDS011;33679;51.218;6.786;2023-06-26T00:24:56;6.70;;;5.30;;
10582;SDS011;33679;51.218;6.786;2023-06-26T00:27:28;7.80;;;5.67;;
10582;SDS011;33679;51.218;6.786;2023-06-26T00:30:00;7.53;;;5.33;;
10582;SDS011;33679;51.218;6.786;2023-06-26T00:32:33;7.90;;;5.70;;
10582;SDS011;33679;51.218;6.786;2023-06-26T00:35:09;7.17;;;6.30;;
10582;SDS011;33679;51.218;6.786;2023-06-26T00:37:41;6.80;;;5.67;;
10582;SDS011;33679;51.218;6.786;2023-06-26T00:40:14;5.77;;;5.17;;
10582;SDS011;33679;51.218;6.786;2023-06-26T00:42:49;6.67;;;5.43;;
10582;SDS011;33679;51.218;6.786;2023-06-26T00:45:22;7.20;;;5.23;;
10582;SDS011;33679;51.218;6.786;2023-06-26T00:47:56;9.27;;;6.57;;
10582;SDS011;33679;51.218;6.786;2023-06-26T00:50:30;6.50;;;5.10;;
10582;SDS011;33679;51.218;6.786;2023-06-26T00:53:03;8.63;;;6.23;;
10582;SDS011;33679;51.218;6.786;2023-06-26T00:55:37;6.83;;;5.30;;
10582;SDS011;33679;51.218;6.786;2023-06-26T00:58:13;7.27;;;5.50;;
10582;SDS011;33679;51.218;6.786;2023-06-26T01:00:45;7.67;;;5.47;;
10582;SDS011;33679;51.218;6.786;2023-06-26T01:03:18;5.90;;;5.30;;
10582;SDS011;33679;51.218;6.786;2023-06-26T01:05:53;6.50;;;5.43;;
10582;SDS011;33679;51.218;6.786;2023-06-26T01:08:27;8.13;;;5.73;;
10582;SDS011;33679;51.218;6.786;2023-06-26T01:11:00;7.00;;;5.40;;
10582;SDS011;33679;51.218;6.786;2023-06-26T01:13:34;6.07;;;4.63;;
10582;SDS011;33679;51.218;6.786;2023-06-26T01:16:08;7.47;;;5.73;;
10582;SDS011;33679;51.218;6.786;2023-06-26T01:18:43;7.10;;;5.40;;
10582;SDS011;33679;51.218;6.786;2023-06-26T01:21:16;6.80;;;5.50;;
10582;SDS011;33679;51.218;6.786;2023-06-26T01:23:58;8.37;;;6.03;;
10582;SDS011;33679;51.218;6.786;2023-06-26T01:26:41;6.00;;;5.00;;
10582;SDS011;33679;51.218;6.786;2023-06-26T01:29:20;6.87;;;5.83;;
10582;SDS011;33679;51.218;6.786;2023-06-26T01:31:56;5.80;;;4.70;;
10582;SDS011;33679;51.218;6.786;2023-06-26T01:34:29;8.10;;;5.73;;
10582;SDS011;33679;51.218;6.786;2023-06-26T01:37:02;9.20;;;6.10;;
10582;SDS011;33679;51.218;6.786;2023-06-26T01:39:34;6.30;;;5.57;;
10582;SDS011;33679;51.218;6.786;2023-06-26T01:42:08;7.00;;;5.40;;
10582;SDS011;33679;51.218;6.786;2023-06-26T01:44:44;8.90;;;5.53;;
10582;SDS011;33679;51.218;6.786;2023-06-26T01:47:19;10.60;;;6.07;;
10582;SDS011;33679;51.218;6.786;2023-06-26T01:49:56;7.57;;;5.83;;
10582;SDS011;33679;51.218;6.786;2023-06-26T01:52:35;8.83;;;6.20;;
10582;SDS011;33679;51.218;6.786;2023-06-26T01:55:15;8.70;;;5.90;;
10582;SDS011;33679;51.218;6.786;2023-06-26T01:57:54;11.27;;;6.07;;
10582;SDS011;33679;51.218;6.786;2023-06-26T02:00:29;8.40;;;5.10;;
10582;SDS011;33679;51.218;6.786;2023-06-26T02:03:01;8.03;;;5.87;;
10582;SDS011;33679;51.218;6.786;2023-06-26T02:05:36;7.37;;;5.80;;
10582;SDS011;33679;51.218;6.786;2023-06-26T02:08:09;9.07;;;6.43;;
10582;SDS011;33679;51.218;6.786;2023-06-26T02:10:52;6.60;;;5.90;;
10582;SDS011;33679;51.218;6.786;2023-06-26T02:13:26;7.70;;;5.70;;
10582;SDS011;33679;51.218;6.786;2023-06-26T02:15:58;6.70;;;5.30;;
10582;SDS011;33679;51.218;6.786;2023-06-26T02:18:30;7.77;;;6.07;;
10582;SDS011;33679;51.218;6.786;2023-06-26T02:21:03;9.90;;;5.87;;
10582;SDS011;33679;51.218;6.786;2023-06-26T02:23:36;6.50;;;5.33;;
10582;SDS011;33679;51.218;6.786;2023-06-26T02:26:09;7.37;;;5.50;;
10582;SDS011;33679;51.218;6.786;2023-06-26T02:28:42;6.80;;;4.60;;
10582;SDS011;33679;51.218;6.786;2023-06-26T02:31:17;7.53;;;5.60;;
10582;SDS011;33679;51.218;6.786;2023-06-26T02:33:50;7.23;;;5.57;;
10582;SDS011;33679;51.218;6.786;2023-06-26T02:36:22;8.20;;;5.30;;
10582;SDS011;33679;51.218;6.786;2023-06-26T02:38:54;9.03;;;5.73;;
10582;SDS011;33679;51.218;6.786;2023-06-26T02:41:27;6.03;;;4.83;;
10582;SDS011;33679;51.218;6.786;2023-06-26T02:44:01;6.70;;;5.03;;
10582;SDS011;33679;51.218;6.786;2023-06-26T02:46:36;6.97;;;5.23;;
10582;SDS011;33679;51.218;6.786;2023-06-26T02:49:08;5.90;;;5.13;;
10582;SDS011;33679;51.218;6.786;2023-06-26T02:51:41;7.97;;;5.23;;
10582;SDS011;33679;51.218;6.786;2023-06-26T02:54:26;8.00;;;5.30;;
10582;SDS011;33679;51.218;6.786;2023-06-26T02:57:07;6.47;;;5.27;;
10582;SDS011;33679;51.218;6.786;2023-06-26T02:59:41;8.70;;;5.70;;
10582;SDS011;33679;51.218;6.786;2023-06-26T03:02:15;5.90;;;4.90;;
10582;SDS011;33679;51.218;6.786;2023-06-26T03:04:50;7.03;;;5.63;;
10582;SDS011;33679;51.218;6.786;2023-06-26T03:07:23;7.03;;;5.37;;
10582;SDS011;33679;51.218;6.786;2023-06-26T03:09:56;6.87;;;5.20;;
10582;SDS011;33679;51.218;6.786;2023-06-26T03:12:31;6.40;;;5.40;;
10582;SDS011;33679;51.218;6.786;2023-06-26T03:15:06;9.70;;;5.00;;
10582;SDS011;33679;51.218;6.786;2023-06-26T03:17:39;6.10;;;5.50;;
10582;SDS011;33679;51.218;6.786;2023-06-26T03:20:16;8.33;;;5.43;;
10582;SDS011;33679;51.218;6.786;2023-06-26T03:22:54;5.87;;;4.77;;
10582;SDS011;33679;51.218;6.786;2023-06-26T03:25:29;6.33;;;4.90;;
10582;SDS011;33679;51.218;6.786;2023-06-26T03:28:16;8.40;;;5.00;;
10582;SDS011;33679;51.218;6.786;2023-06-26T03:30:50;6.33;;;4.70;;
10582;SDS011;33679;51.218;6.786;2023-06-26T03:33:25;10.73;;;4.47;;
10582;SDS011;33679;51.218;6.786;2023-06-26T03:35:59;7.23;;;4.80;;
10582;SDS011;33679;51.218;6.786;2023-06-26T03:38:31;7.47;;;5.30;;
10582;SDS011;33679;51.218;6.786;2023-06-26T03:41:04;7.53;;;5.23;;
10582;SDS011;33679;51.218;6.786;2023-06-26T03:43:37;11.40;;;6.03;;
10582;SDS011;33679;51.218;6.786;2023-06-26T03:46:19;8.30;;;4.80;;
10582;SDS011;33679;51.218;6.786;2023-06-26T03:48:54;6.57;;;4.87;;
10582;SDS011;33679;51.218;6.786;2023-06-26T03:51:26;7.00;;;5.33;;
10582;SDS011;33679;51.218;6.786;2023-06-26T03:54:00;7.97;;;5.50;;
10582;SDS011;33679;51.218;6.786;2023-06-26T03:56:32;10.40;;;4.57;;
10582;SDS011;33679;51.218;6.786;2023-06-26T03:59:07;6.73;;;4.80;;
10582;SDS011;33679;51.218;6.786;2023-06-26T04:01:41;6.60;;;5.30;;
10582;SDS011;33679;51.218;6.786;2023-06-26T04:04:13;7.47;;;5.37;;
10582;SDS011;33679;51.218;6.786;2023-06-26T04:06:46;7.10;;;4.43;;
10582;SDS011;33679;51.218;6.786;2023-06-26T04:09:18;6.60;;;4.73;;
10582;SDS011;33679;51.218;6.786;2023-06-26T04:11:50;8.30;;;4.60;;
10582;SDS011;33679;51.218;6.786;2023-06-26T04:14:23;7.90;;;5.80;;
10582;SDS011;33679;51.218;6.786;2023-06-26T04:16:56;6.30;;;4.70;;
10582;SDS011;33679;51.218;6.786;2023-06-26T04:19:30;6.97;;;4.90;;
10582;SDS011;33679;51.218;6.786;2023-06-26T04:22:03;6.43;;;5.03;;
10582;SDS011;33679;51.218;6.786;2023-06-26T04:24:35;6.00;;;4.43;;
10582;SDS011;33679;51.218;6.786;2023-06-26T04:27:10;6.03;;;4.40;;
10582;SDS011;33679;51.218;6.786;2023-06-26T04:29:45;7.87;;;5.03;;
10582;SDS011;33679;51.218;6.786;2023-06-26T04:32:19;8.97;;;5.90;;
10582;SDS011;33679;51.218;6.786;2023-06-26T04:34:51;6.60;;;5.10;;
10582;SDS011;33679;51.218;6.786;2023-06-26T04:37:23;7.80;;;5.20;;
10582;SDS011;33679;51.218;6.786;2023-06-26T04:39:56;7.73;;;5.30;;
10582;SDS011;33679;51.218;6.786;2023-06-26T04:42:28;10.47;;;5.57;;
10582;SDS011;33679;51.218;6.786;2023-06-26T04:45:00;6.97;;;5.13;;
10582;SDS011;33679;51.218;6.786;2023-06-26T04:47:34;6.00;;;4.37;;
10582;SDS011;33679;51.218;6.786;2023-06-26T04:50:06;6.87;;;4.90;;
10582;SDS011;33679;51.218;6.786;2023-06-26T04:52:40;8.30;;;4.83;;
10582;SDS011;33679;51.218;6.786;2023-06-26T04:55:12;8.80;;;4.87;;
10582;SDS011;33679;51.218;6.786;2023-06-26T04:57:45;6.60;;;4.30;;
10582;SDS011;33679;51.218;6.786;2023-06-26T05:00:17;9.10;;;4.37;;
10582;SDS011;33679;51.218;6.786;2023-06-26T05:02:56;4.40;;;3.93;;
10582;SDS011;33679;51.218;6.786;2023-06-26T05:05:32;6.03;;;3.70;;
10582;SDS011;33679;51.218;6.786;2023-06-26T05:08:14;4.47;;;3.50;;
10582;SDS011;33679;51.218;6.786;2023-06-26T05:10:47;7.40;;;4.10;;
10582;SDS011;33679;51.218;6.786;2023-06-26T05:13:20;5.07;;;3.50;;
10582;SDS011;33679;51.218;6.786;2023-06-26T05:15:57;6.10;;;4.07;;
10582;SDS011;33679;51.218;6.786;2023-06-26T05:18:31;6.73;;;4.37;;
10582;SDS011;33679;51.218;6.786;2023-06-26T05:21:04;5.20;;;4.30;;
10582;SDS011;33679;51.218;6.786;2023-06-26T05:23:37;8.57;;;4.00;;
10582;SDS011;33679;51.218;6.786;2023-06-26T05:26:09;4.50;;;3.63;;
10582;SDS011;33679;51.218;6.786;2023-06-26T05:28:43;5.60;;;3.57;;
10582;SDS011;33679;51.218;6.786;2023-06-26T05:31:18;5.47;;;3.80;;
10582;SDS011;33679;51.218;6.786;2023-06-26T05:33:55;7.83;;;4.47;;
10582;SDS011;33679;51.218;6.786;2023-06-26T05:36:29;5.73;;;3.40;;
10582;SDS011;33679;51.218;6.786;2023-06-26T05:39:05;5.70;;;4.20;;
10582;SDS011;33679;51.218;6.786;2023-06-26T05:41:38;5.00;;;3.47;;
10582;SDS011;33679;51.218;6.786;2023-06-26T05:44:10;6.27;;;3.70;;
10582;SDS011;33679;51.218;6.786;2023-06-26T05:46:42;4.93;;;4.13;;
10582;SDS011;33679;51.218;6.786;2023-06-26T05:49:16;4.63;;;3.60;;
10582;SDS011;33679;51.218;6.786;2023-06-26T05:51:48;4.73;;;3.87;;
10582;SDS011;33679;51.218;6.786;2023-06-26T05:54:22;7.00;;;3.70;;
10582;SDS011;33679;51.218;6.786;2023-06-26T05:56:56;5.80;;;3.60;;
10582;SDS011;33679;51.218;6.786;2023-06-26T05:59:29;8.33;;;4.20;;
10582;SDS011;33679;51.218;6.786;2023-06-26T06:02:03;4.43;;;3.53;;
10582;SDS011;33679;51.218;6.786;2023-06-26T06:04:39;5.93;;;3.60;;
10582;SDS011;33679;51.218;6.786;2023-06-26T06:07:11;7.33;;;3.77;;
10582;SDS011;33679;51.218;6.786;2023-06-26T06:09:43;6.47;;;4.00;;
10582;SDS011;33679;51.218;6.786;2023-06-26T06:12:16;5.73;;;3.80;;
10582;SDS011;33679;51.218;6.786;2023-06-26T06:14:48;6.50;;;3.37;;
10582;SDS011;33679;51.218;6.786;2023-06-26T06:17:21;6.17;;;4.03;;
10582;SDS011;33679;51.218;6.786;2023-06-26T06:19:54;8.70;;;4.33;;
10582;SDS011;33679;51.218;6.786;2023-06-26T06:22:27;8.20;;;3.87;;
10582;SDS011;33679;51.218;6.786;2023-06-26T06:24:59;12.70;;;10.33;;
10582;SDS011;33679;51.218;6.786;2023-06-26T06:27:32;11.33;;;7.20;;
10582;SDS011;33679;51.218;6.786;2023-06-26T06:30:05;6.50;;;4.00;;
10582;SDS011;33679;51.218;6.786;2023-06-26T06:32:38;5.50;;;3.90;;
10582;SDS011;33679;51.218;6.786;2023-06-26T06:35:12;6.93;;;3.70;;
10582;SDS011;33679;51.218;6.786;2023-06-26T06:37:44;13.53;;;4.47;;
10582;SDS011;33679;51.218;6.786;2023-06-26T06:40:16;7.00;;;3.97;;
10582;SDS011;33679;51.218;6.786;2023-06-26T06:42:48;7.20;;;3.50;;
10582;SDS011;33679;51.218;6.786;2023-06-26T06:45:21;10.03;;;6.40;;
10582;SDS011;33679;51.218;6.786;2023-06-26T06:47:53;10.33;;;5.43;;
10582;SDS011;33679;51.218;6.786;2023-06-26T06:50:27;10.23;;;4.67;;
10582;SDS011;33679;51.218;6.786;2023-06-26T06:52:59;6.07;;;4.57;;
10582;SDS011;33679;51.218;6.786;2023-06-26T06:55:33;12.23;;;4.70;;
10582;SDS011;33679;51.218;6.786;2023-06-26T06:58:05;6.03;;;3.40;;
10582;SDS011;33679;51.218;6.786;2023-06-26T07:00:38;8.77;;;4.07;;
10582;SDS011;33679;51.218;6.786;2023-06-26T07:03:10;6.67;;;3.80;;
10582;SDS011;33679;51.218;6.786;2023-06-26T07:05:46;6.23;;;3.50;;
10582;SDS011;33679;51.218;6.786;2023-06-26T07:08:18;8.40;;;4.23;;
10582;SDS011;33679;51.218;6.786;2023-06-26T07:10:50;7.27;;;3.90;;
10582;SDS011;33679;51.218;6.786;2023-06-26T07:13:23;8.90;;;6.27;;
10582;SDS011;33679;51.218;6.786;2023-06-26T07:15:55;8.80;;;6.10;;
10582;SDS011;33679;51.218;6.786;2023-06-26T07:18:27;5.63;;;3.70;;
10582;SDS011;33679;51.218;6.786;2023-06-26T07:21:03;10.80;;;4.10;;
10582;SDS011;33679;51.218;6.786;2023-06-26T07:23:39;4.90;;;3.63;;
10582;SDS011;33679;51.218;6.786;2023-06-26T07:26:13;4.87;;;2.83;;
10582;SDS011;33679;51.218;6.786;2023-06-26T07:28:46;8.97;;;3.47;;
10582;SDS011;33679;51.218;6.786;2023-06-26T07:31:19;7.63;;;3.57;;
10582;SDS011;33679;51.218;6.786;2023-06-26T07:33:51;6.53;;;3.27;;
10582;SDS011;33679;51.218;6.786;2023-06-26T07:36:25;8.70;;;3.70;;
10582;SDS011;33679;51.218;6.786;2023-06-26T07:38:57;8.60;;;4.53;;
10582;SDS011;33679;51.218;6.786;2023-06-26T07:41:29;7.33;;;3.87;;
10582;SDS011;33679;51.218;6.786;2023-06-26T07:44:02;17.00;;;11.20;;
10582;SDS011;33679;51.218;6.786;2023-06-26T07:46:34;13.17;;;6.80;;
10582;SDS011;33679;51.218;6.786;2023-06-26T07:49:06;10.43;;;4.80;;
10582;SDS011;33679;51.218;6.786;2023-06-26T07:51:40;7.37;;;3.63;;
10582;SDS011;33679;51.218;6.786;2023-06-26T07:54:12;8.27;;;4.20;;
10582;SDS011;33679;51.218;6.786;2023-06-26T07:56:54;6.50;;;4.17;;
10582;SDS011;33679;51.218;6.786;2023-06-26T07:59:28;5.87;;;3.40;;
10582;SDS011;33679;51.218;6.786;2023-06-26T08:02:01;8.80;;;3.90;;
10582;SDS011;33679;51.218;6.786;2023-06-26T08:04:34;6.70;;;4.40;;
10582;SDS011;33679;51.218;6.786;2023-06-26T08:07:07;7.00;;;4.00;;
10582;SDS011;33679;51.218;6.786;2023-06-26T08:09:40;4.70;;;3.30;;
10582;SDS011;33679;51.218;6.786;2023-06-26T08:12:12;5.13;;;3.70;;
10582;SDS011;33679;51.218;6.786;2023-06-26T08:14:44;8.93;;;4.33;;
10582;SDS011;33679;51.218;6.786;2023-06-26T08:17:17;8.93;;;6.40;;
10582;SDS011;33679;51.218;6.786;2023-06-26T08:19:49;11.60;;;4.33;;
10582;SDS011;33679;51.218;6.786;2023-06-26T08:22:25;9.33;;;5.20;;
10582;SDS011;33679;51.218;6.786;2023-06-26T08:24:57;11.03;;;4.97;;
10582;SDS011;33679;51.218;6.786;2023-06-26T08:27:30;6.50;;;3.90;;
10582;SDS011;33679;51.218;6.786;2023-06-26T08:30:02;12.10;;;7.33;;
10582;SDS011;33679;51.218;6.786;2023-06-26T08:32:35;8.30;;;5.50;;
10582;SDS011;33679;51.218;6.786;2023-06-26T08:35:07;16.43;;;6.40;;
10582;SDS011;33679;51.218;6.786;2023-06-26T08:37:42;17.50;;;11.10;;
10582;SDS011;33679;51.218;6.786;2023-06-26T08:40:16;12.57;;;5.90;;
10582;SDS011;33679;51.218;6.786;2023-06-26T08:42:51;8.30;;;4.97;;
10582;SDS011;33679;51.218;6.786;2023-06-26T08:45:23;8.27;;;4.80;;
10582;SDS011;33679;51.218;6.786;2023-06-26T08:47:57;9.13;;;4.17;;
10582;SDS011;33679;51.218;6.786;2023-06-26T08:50:34;7.20;;;3.40;;
10582;SDS011;33679;51.218;6.786;2023-06-26T08:53:13;7.27;;;4.30;;
10582;SDS011;33679;51.218;6.786;2023-06-26T08:55:49;6.50;;;3.43;;
10582;SDS011;33679;51.218;6.786;2023-06-26T08:58:24;11.70;;;8.40;;
10582;SDS011;33679;51.218;6.786;2023-06-26T09:00:58;11.20;;;5.53;;
10582;SDS011;33679;51.218;6.786;2023-06-26T09:03:32;5.40;;;3.10;;
10582;SDS011;33679;51.218;6.786;2023-06-26T09:08:59;7.20;;;3.80;;
10582;SDS011;33679;51.218;6.786;2023-06-26T09:11:31;6.40;;;3.77;;
10582;SDS011;33679;51.218;6.786;2023-06-26T09:14:03;14.10;;;4.10;;
10582;SDS011;33679;51.218;6.786;2023-06-26T09:16:40;6.50;;;3.30;;
10582;SDS011;33679;51.218;6.786;2023-06-26T09:19:13;9.37;;;3.60;;
10582;SDS011;33679;51.218;6.786;2023-06-26T09:21:45;5.60;;;3.60;;
10582;SDS011;33679;51.218;6.786;2023-06-26T09:24:23;7.40;;;3.60;;
10582;SDS011;33679;51.218;6.786;2023-06-26T09:26:56;6.17;;;2.90;;
10582;SDS011;33679;51.218;6.786;2023-06-26T09:29:29;8.77;;;4.10;;
10582;SDS011;33679;51.218;6.786;2023-06-26T09:32:01;8.27;;;3.20;;
10582;SDS011;33679;51.218;6.786;2023-06-26T09:34:35;6.07;;;3.37;;
10582;SDS011;33679;51.218;6.786;2023-06-26T09:37:11;6.97;;;3.60;;
10582;SDS011;33679;51.218;6.786;2023-06-26T09:39:48;7.47;;;3.40;;
10582;SDS011;33679;51.218;6.786;2023-06-26T09:42:21;6.30;;;3.30;;
10582;SDS011;33679;51.218;6.786;2023-06-26T09:44:57;5.40;;;2.80;;
10582;SDS011;33679;51.218;6.786;2023-06-26T09:47:30;7.30;;;4.70;;
10582;SDS011;33679;51.218;6.786;2023-06-26T09:50:03;14.03;;;8.37;;
10582;SDS011;33679;51.218;6.786;2023-06-26T09:52:36;6.20;;;2.93;;
10582;SDS011;33679;51.218;6.786;2023-06-26T09:55:14;5.40;;;2.90;;
10582;SDS011;33679;51.218;6.786;2023-06-26T09:57:47;4.63;;;2.60;;
10582;SDS011;33679;51.218;6.786;2023-06-26T10:00:21;8.17;;;3.20;;
10582;SDS011;33679;51.218;6.786;2023-06-26T10:02:53;4.07;;;2.40;;
10582;SDS011;33679;51.218;6.786;2023-06-26T10:05:26;6.13;;;2.47;;
10582;SDS011;33679;51.218;6.786;2023-06-26T10:08:01;5.17;;;2.20;;
10582;SDS011;33679;51.218;6.786;2023-06-26T10:10:38;3.37;;;2.57;;
10582;SDS011;33679;51.218;6.786;2023-06-26T10:13:11;6.70;;;2.70;;
10582;SDS011;33679;51.218;6.786;2023-06-26T10:15:50;8.90;;;3.37;;
10582;SDS011;33679;51.218;6.786;2023-06-26T10:18:23;4.43;;;2.30;;
10582;SDS011;33679;51.218;6.786;2023-06-26T10:20:57;9.67;;;2.73;;
10582;SDS011;33679;51.218;6.786;2023-06-26T10:23:36;3.73;;;2.40;;
10582;SDS011;33679;51.218;6.786;2023-06-26T10:26:11;4.57;;;2.57;;
10582;SDS011;33679;51.218;6.786;2023-06-26T10:28:45;3.93;;;2.27;;
10582;SDS011;33679;51.218;6.786;2023-06-26T10:31:25;5.97;;;2.60;;
10582;SDS011;33679;51.218;6.786;2023-06-26T10:33:59;5.67;;;2.30;;
10582;SDS011;33679;51.218;6.786;2023-06-26T10:36:34;5.20;;;2.77;;
10582;SDS011;33679;51.218;6.786;2023-06-26T10:39:07;7.97;;;3.53;;
10582;SDS011;33679;51.218;6.786;2023-06-26T10:41:41;8.57;;;3.63;;
10582;SDS011;33679;51.218;6.786;2023-06-26T10:44:15;2.33;;;2.13;;
10582;SDS011;33679;51.218;6.786;2023-06-26T10:46:49;6.10;;;2.37;;
10582;SDS011;33679;51.218;6.786;2023-06-26T10:49:24;4.13;;;2.03;;
10582;SDS011;33679;51.218;6.786;2023-06-26T10:52:00;4.50;;;1.90;;
10582;SDS011;33679;51.218;6.786;2023-06-26T10:54:33;5.20;;;2.07;;
10582;SDS011;33679;51.218;6.786;2023-06-26T10:57:08;4.00;;;2.00;;
10582;SDS011;33679;51.218;6.786;2023-06-26T10:59:41;2.80;;;1.80;;
10582;SDS011;33679;51.218;6.786;2023-06-26T11:02:13;2.73;;;2.10;;
10582;SDS011;33679;51.218;6.786;2023-06-26T11:04:49;7.10;;;2.00;;
10582;SDS011;33679;51.218;6.786;2023-06-26T11:07:26;5.87;;;2.37;;
10582;SDS011;33679;51.218;6.786;2023-06-26T11:09:59;7.73;;;2.07;;
10582;SDS011;33679;51.218;6.786;2023-06-26T11:12:35;3.40;;;1.60;;
10582;SDS011;33679;51.218;6.786;2023-06-26T11:15:08;3.90;;;1.63;;
10582;SDS011;33679;51.218;6.786;2023-06-26T11:17:42;3.20;;;2.07;;
10582;SDS011;33679;51.218;6.786;2023-06-26T11:20:15;2.80;;;1.93;;
10582;SDS011;33679;51.218;6.786;2023-06-26T11:22:48;2.60;;;1.80;;
10582;SDS011;33679;51.218;6.786;2023-06-26T11:25:24;2.50;;;1.40;;
10582;SDS011;33679;51.218;6.786;2023-06-26T11:27:57;3.20;;;1.87;;
10582;SDS011;33679;51.218;6.786;2023-06-26T11:30:29;2.77;;;1.93;;
10582;SDS011;33679;51.218;6.786;2023-06-26T11:33:03;2.50;;;1.40;;
10582;SDS011;33679;51.218;6.786;2023-06-26T11:35:36;5.33;;;2.17;;
10582;SDS011;33679;51.218;6.786;2023-06-26T11:38:09;2.43;;;1.40;;
10582;SDS011;33679;51.218;6.786;2023-06-26T11:40:41;2.17;;;1.40;;
10582;SDS011;33679;51.218;6.786;2023-06-26T11:43:14;2.27;;;1.57;;
10582;SDS011;33679;51.218;6.786;2023-06-26T11:45:47;2.40;;;1.33;;
10582;SDS011;33679;51.218;6.786;2023-06-26T11:48:21;4.23;;;2.13;;
10582;SDS011;33679;51.218;6.786;2023-06-26T11:50:54;2.30;;;1.40;;
10582;SDS011;33679;51.218;6.786;2023-06-26T11:53:27;2.50;;;2.00;;
10582;SDS011;33679;51.218;6.786;2023-06-26T11:56:00;2.23;;;1.40;;
10582;SDS011;33679;51.218;6.786;2023-06-26T12:01:31;8.90;;;4.50;;
10582;SDS011;33679;51.218;6.786;2023-06-26T12:04:06;4.07;;;2.20;;
10582;SDS011;33679;51.218;6.786;2023-06-26T12:06:40;5.13;;;1.97;;
10582;SDS011;33679;51.218;6.786;2023-06-26T12:09:14;6.70;;;1.73;;
10582;SDS011;33679;51.218;6.786;2023-06-26T12:11:48;3.03;;;1.67;;
10582;SDS011;33679;51.218;6.786;2023-06-26T12:14:27;4.23;;;1.47;;
10582;SDS011;33679;51.218;6.786;2023-06-26T12:17:04;3.30;;;1.83;;
10582;SDS011;33679;51.218;6.786;2023-06-26T12:19:46;2.13;;;1.50;;
10582;SDS011;33679;51.218;6.786;2023-06-26T12:22:20;3.10;;;1.43;;
10582;SDS011;33679;51.218;6.786;2023-06-26T12:24:52;1.83;;;1.17;;
10582;SDS011;33679;51.218;6.786;2023-06-26T12:27:28;2.60;;;1.40;;
10582;SDS011;33679;51.218;6.786;2023-06-26T12:30:04;2.90;;;1.57;;
10582;SDS011;33679;51.218;6.786;2023-06-26T12:32:37;4.20;;;1.60;;
10582;SDS011;33679;51.218;6.786;2023-06-26T12:35:10;11.40;;;7.23;;
10582;SDS011;33679;51.218;6.786;2023-06-26T12:37:43;2.80;;;1.80;;
10582;SDS011;33679;51.218;6.786;2023-06-26T12:40:16;4.90;;;3.70;;
10582;SDS011;33679;51.218;6.786;2023-06-26T12:42:52;4.73;;;1.37;;
10582;SDS011;33679;51.218;6.786;2023-06-26T12:45:29;2.50;;;1.43;;
10582;SDS011;33679;51.218;6.786;2023-06-26T12:48:10;1.40;;;1.20;;
10582;SDS011;33679;51.218;6.786;2023-06-26T12:50:44;1.60;;;1.20;;
10582;SDS011;33679;51.218;6.786;2023-06-26T12:53:16;2.80;;;2.33;;
10582;SDS011;33679;51.218;6.786;2023-06-26T12:55:49;3.00;;;1.20;;
10582;SDS011;33679;51.218;6.786;2023-06-26T12:58:21;4.17;;;1.70;;
10582;SDS011;33679;51.218;6.786;2023-06-26T13:00:55;3.67;;;1.67;;
10582;SDS011;33679;51.218;6.786;2023-06-26T13:03:29;5.47;;;1.47;;
10582;SDS011;33679;51.218;6.786;2023-06-26T13:06:01;3.20;;;1.77;;
10582;SDS011;33679;51.218;6.786;2023-06-26T13:08:33;4.30;;;1.50;;
10582;SDS011;33679;51.218;6.786;2023-06-26T13:11:06;1.83;;;1.30;;
10582;SDS011;33679;51.218;6.786;2023-06-26T13:13:38;1.70;;;1.37;;
10582;SDS011;33679;51.218;6.786;2023-06-26T13:16:12;5.83;;;1.63;;
10582;SDS011;33679;51.218;6.786;2023-06-26T13:18:45;4.70;;;1.90;;
10582;SDS011;33679;51.218;6.786;2023-06-26T13:21:17;2.50;;;1.17;;
10582;SDS011;33679;51.218;6.786;2023-06-26T13:23:50;2.53;;;1.20;;
10582;SDS011;33679;51.218;6.786;2023-06-26T13:26:23;4.57;;;1.30;;
10582;SDS011;33679;51.218;6.786;2023-06-26T13:28:57;3.80;;;1.50;;
10582;SDS011;33679;51.218;6.786;2023-06-26T13:31:31;2.83;;;1.40;;
10582;SDS011;33679;51.218;6.786;2023-06-26T13:34:04;2.57;;;1.30;;
10582;SDS011;33679;51.218;6.786;2023-06-26T13:36:36;6.07;;;1.50;;
10582;SDS011;33679;51.218;6.786;2023-06-26T13:39:09;3.63;;;1.60;;
10582;SDS011;33679;51.218;6.786;2023-06-26T13:41:44;3.17;;;1.47;;
10582;SDS011;33679;51.218;6.786;2023-06-26T13:44:16;3.13;;;1.50;;
10582;SDS011;33679;51.218;6.786;2023-06-26T13:46:50;2.00;;;1.23;;
10582;SDS011;33679;51.218;6.786;2023-06-26T13:49:23;2.80;;;1.83;;
10582;SDS011;33679;51.218;6.786;2023-06-26T13:51:56;2.87;;;1.20;;
10582;SDS011;33679;51.218;6.786;2023-06-26T13:54:29;3.03;;;1.40;;
10582;SDS011;33679;51.218;6.786;2023-06-26T13:57:01;4.03;;;1.40;;
10582;SDS011;33679;51.218;6.786;2023-06-26T13:59:36;5.97;;;1.60;;
10582;SDS011;33679;51.218;6.786;2023-06-26T14:02:13;2.67;;;1.40;;
10582;SDS011;33679;51.218;6.786;2023-06-26T14:04:47;7.57;;;3.10;;
10582;SDS011;33679;51.218;6.786;2023-06-26T14:07:20;5.00;;;1.37;;
10582;SDS011;33679;51.218;6.786;2023-06-26T14:09:53;9.63;;;1.40;;
10582;SDS011;33679;51.218;6.786;2023-06-26T14:12:25;2.20;;;1.17;;
10582;SDS011;33679;51.218;6.786;2023-06-26T14:14:57;3.40;;;1.40;;
10582;SDS011;33679;51.218;6.786;2023-06-26T14:17:35;1.63;;;1.10;;
10582;SDS011;33679;51.218;6.786;2023-06-26T14:20:10;1.73;;;1.20;;
10582;SDS011;33679;51.218;6.786;2023-06-26T14:22:45;2.80;;;1.53;;
10582;SDS011;33679;51.218;6.786;2023-06-26T14:25:18;3.43;;;1.40;;
10582;SDS011;33679;51.218;6.786;2023-06-26T14:27:51;6.10;;;1.60;;
10582;SDS011;33679;51.218;6.786;2023-06-26T14:30:26;3.23;;;1.43;;
10582;SDS011;33679;51.218;6.786;2023-06-26T14:33:03;3.30;;;1.20;;
10582;SDS011;33679;51.218;6.786;2023-06-26T14:35:35;1.43;;;1.33;;
10582;SDS011;33679;51.218;6.786;2023-06-26T14:38:10;6.53;;;1.40;;
10582;SDS011;33679;51.218;6.786;2023-06-26T14:40:42;2.13;;;1.50;;
10582;SDS011;33679;51.218;6.786;2023-06-26T14:43:15;4.90;;;1.70;;
10582;SDS011;33679;51.218;6.786;2023-06-26T14:45:50;3.80;;;2.50;;
10582;SDS011;33679;51.218;6.786;2023-06-26T14:48:24;4.50;;;2.83;;
10582;SDS011;33679;51.218;6.786;2023-06-26T14:50:57;2.80;;;1.40;;
10582;SDS011;33679;51.218;6.786;2023-06-26T14:53:30;2.27;;;1.80;;
10582;SDS011;33679;51.218;6.786;2023-06-26T14:56:03;4.03;;;1.40;;
10582;SDS011;33679;51.218;6.786;2023-06-26T14:58:39;4.83;;;1.40;;
10582;SDS011;33679;51.218;6.786;2023-06-26T15:01:12;2.77;;;1.30;;
10582;SDS011;33679;51.218;6.786;2023-06-26T15:03:49;2.10;;;1.43;;
10582;SDS011;33679;51.218;6.786;2023-06-26T15:06:22;2.80;;;1.40;;
10582;SDS011;33679;51.218;6.786;2023-06-26T15:08:54;2.57;;;1.43;;
10582;SDS011;33679;51.218;6.786;2023-06-26T15:11:27;2.70;;;1.33;;
10582;SDS011;33679;51.218;6.786;2023-06-26T15:14:00;2.20;;;1.63;;
10582;SDS011;33679;51.218;6.786;2023-06-26T15:16:33;2.27;;;1.60;;
10582;SDS011;33679;51.218;6.786;2023-06-26T15:19:07;4.77;;;1.70;;
10582;SDS011;33679;51.218;6.786;2023-06-26T15:21:39;2.30;;;1.50;;
10582;SDS011;33679;51.218;6.786;2023-06-26T15:24:12;2.93;;;1.40;;
10582;SDS011;33679;51.218;6.786;2023-06-26T15:26:45;3.83;;;1.70;;
10582;SDS011;33679;51.218;6.786;2023-06-26T15:29:17;3.53;;;1.50;;
10582;SDS011;33679;51.218;6.786;2023-06-26T15:31:49;3.37;;;2.13;;